Time;durP1;ratioP1;P1;durP2;ratioP2;P2;SDS_P1;SDS_P2;PMS_P1;PMS_P2;Temp;Humidity;BMP_temperature;BMP_pressure;BME280_temperature;BME280_humidity;BME280_pressure;Samples;Min_cycle;Max_cycle;Signal;HPM_P1;HPM_P2
2023/05/08 00:01:30;;;;;;;4.93;4.40;;;;;;;;;;4996442;28;20453;-48
2023/05/08 00:03:56;;;;;;;8.50;5.10;;;;;;;;;;4996451;28;20181;-47
2023/05/08 00:06:22;;;;;;;5.18;4.47;;;;;;;;;;4995869;28;20188;-48
2023/05/08 00:08:48;;;;;;;7.30;4.60;;;;;;;;;;4995576;28;20481;-48
2023/05/08 00:11:14;;;;;;;5.43;4.88;;;;;;;;;;4997323;28;20189;-48
2023/05/08 00:13:40;;;;;;;5.57;4.93;;;;;;;;;;4996599;28;20185;-48
2023/05/08 00:16:10;;;;;;;4.55;4.05;;;;;;;;;;4996205;28;20227;-48
2023/05/08 00:18:37;;;;;;;5.80;4.80;;;;;;;;;;4992121;28;20187;-48
2023/05/08 00:21:03;;;;;;;4.90;4.40;;;;;;;;;;4996075;28;20184;-48
2023/05/08 00:23:29;;;;;;;5.50;4.45;;;;;;;;;;4996428;28;20181;-48
2023/05/08 00:25:55;;;;;;;5.05;4.60;;;;;;;;;;4996825;28;20225;-48
2023/05/08 00:28:21;;;;;;;5.88;4.93;;;;;;;;;;4993851;28;20173;-48
2023/05/08 00:30:47;;;;;;;4.82;4.30;;;;;;;;;;4995031;28;20189;-48
2023/05/08 00:33:12;;;;;;;4.93;4.43;;;;;;;;;;4996333;28;20181;-49
2023/05/08 00:35:41;;;;;;;5.07;4.57;;;;;;;;;;4996696;28;20263;-48
2023/05/08 00:38:07;;;;;;;4.60;4.15;;;;;;;;;;4994176;28;20268;-48
2023/05/08 00:40:32;;;;;;;7.07;4.32;;;;;;;;;;4991409;28;20273;-48
2023/05/08 00:42:58;;;;;;;5.15;4.43;;;;;;;;;;4995586;28;20231;-48
2023/05/08 00:45:25;;;;;;;5.88;4.75;;;;;;;;;;4995094;28;20188;-48
2023/05/08 00:47:51;;;;;;;5.28;4.53;;;;;;;;;;4995963;28;20453;-48
2023/05/08 00:50:17;;;;;;;5.45;4.43;;;;;;;;;;4996159;28;20196;-48
2023/05/08 00:52:43;;;;;;;5.60;4.68;;;;;;;;;;4995484;28;20185;-49
2023/05/08 00:55:09;;;;;;;4.90;4.35;;;;;;;;;;4993923;28;20193;-48
2023/05/08 00:57:36;;;;;;;4.78;4.35;;;;;;;;;;4995941;28;20264;-49
2023/05/08 01:00:03;;;;;;;5.13;4.60;;;;;;;;;;4994025;28;20265;-49
2023/05/08 01:02:30;;;;;;;5.00;4.28;;;;;;;;;;4995238;28;20185;-49
2023/05/08 01:04:56;;;;;;;6.05;4.47;;;;;;;;;;4995382;28;20272;-49
2023/05/08 01:07:22;;;;;;;4.70;4.28;;;;;;;;;;4995683;28;20260;-49
2023/05/08 01:09:48;;;;;;;6.43;4.25;;;;;;;;;;4994415;28;20604;-48
2023/05/08 01:12:24;;;;;;;6.43;4.57;;;;;;;;;;4994061;28;20200;-48
2023/05/08 01:15:11;;;;;;;5.40;4.50;;;;;;;;;;4995294;28;20270;-48
2023/05/08 01:17:45;;;;;;;4.97;4.45;;;;;;;;;;4994923;28;20324;-48
2023/05/08 01:20:11;;;;;;;4.65;4.20;;;;;;;;;;4995348;28;20243;-48
2023/05/08 01:22:55;;;;;;;5.45;4.35;;;;;;;;;;4994788;28;20564;-48
2023/05/08 01:25:40;;;;;;;4.90;4.15;;;;;;;;;;4995360;28;20185;-48
2023/05/08 01:28:21;;;;;;;5.10;4.28;;;;;;;;;;4991020;28;20536;-48
2023/05/08 01:31:05;;;;;;;4.90;4.43;;;;;;;;;;4991169;28;21043;-48
2023/05/08 01:33:45;;;;;;;6.35;4.57;;;;;;;;;;4995194;28;20185;-48
2023/05/08 01:36:18;;;;;;;4.97;4.53;;;;;;;;;;4987211;28;20587;-48
2023/05/08 01:38:51;;;;;;;4.38;4.05;;;;;;;;;;4992450;28;20185;-48
2023/05/08 01:41:27;;;;;;;5.30;4.43;;;;;;;;;;4995064;28;20185;-48
2023/05/08 01:43:57;;;;;;;4.28;3.88;;;;;;;;;;4992832;28;20185;-48
2023/05/08 01:46:24;;;;;;;5.07;4.50;;;;;;;;;;4995208;28;20181;-48
2023/05/08 01:49:03;;;;;;;4.40;4.00;;;;;;;;;;4994070;28;20204;-48
2023/05/08 01:51:33;;;;;;;6.75;4.45;;;;;;;;;;4991368;28;20572;-48
2023/05/08 01:54:00;;;;;;;4.60;4.20;;;;;;;;;;4993516;28;20231;-48
2023/05/08 01:56:28;;;;;;;5.57;4.15;;;;;;;;;;4995203;28;20227;-48
2023/05/08 01:58:56;;;;;;;5.00;4.53;;;;;;;;;;4993598;28;20181;-48
2023/05/08 02:01:23;;;;;;;5.03;4.10;;;;;;;;;;4995489;28;20181;-48
2023/05/08 02:03:49;;;;;;;4.65;3.90;;;;;;;;;;4995166;28;20188;-48
2023/05/08 02:06:17;;;;;;;4.65;4.25;;;;;;;;;;4995126;28;20616;-48
2023/05/08 02:08:43;;;;;;;4.10;3.67;;;;;;;;;;4994391;28;20251;-48
2023/05/08 02:11:10;;;;;;;5.25;4.28;;;;;;;;;;4994432;28;20180;-48
2023/05/08 02:13:36;;;;;;;4.80;4.40;;;;;;;;;;4995217;28;20202;-48
2023/05/08 02:16:02;;;;;;;4.47;4.07;;;;;;;;;;4994235;28;20239;-48
2023/05/08 02:18:29;;;;;;;6.35;4.03;;;;;;;;;;4994396;28;20616;-48
2023/05/08 02:20:56;;;;;;;4.05;3.75;;;;;;;;;;4994359;28;20185;-48
2023/05/08 02:23:25;;;;;;;5.20;4.70;;;;;;;;;;4994910;28;20200;-48
2023/05/08 02:25:51;;;;;;;5.40;4.00;;;;;;;;;;4992192;28;20280;-48
2023/05/08 02:28:18;;;;;;;4.40;4.00;;;;;;;;;;4993836;28;20177;-48
2023/05/08 02:30:44;;;;;;;5.47;4.50;;;;;;;;;;4979516;28;20576;-47
2023/05/08 02:33:11;;;;;;;4.35;3.95;;;;;;;;;;4986441;28;20192;-46
2023/05/08 02:35:38;;;;;;;5.65;4.13;;;;;;;;;;4994101;28;20244;-48
2023/05/08 02:38:09;;;;;;;4.20;3.80;;;;;;;;;;4994065;28;20219;-48
2023/05/08 02:40:35;;;;;;;4.60;4.13;;;;;;;;;;4991164;28;20512;-49
2023/05/08 02:43:01;;;;;;;4.85;3.83;;;;;;;;;;4993722;28;20185;-48
2023/05/08 02:45:32;;;;;;;5.10;3.80;;;;;;;;;;4990813;28;20487;-46
2023/05/08 02:48:07;;;;;;;4.70;4.30;;;;;;;;;;4992713;28;20184;-46
2023/05/08 02:50:39;;;;;;;4.40;4.00;;;;;;;;;;4994128;28;20176;-46
2023/05/08 02:53:12;;;;;;;4.25;3.85;;;;;;;;;;4995250;28;20204;-48
2023/05/08 02:55:52;;;;;;;4.28;3.92;;;;;;;;;;4998163;28;20209;-48
2023/05/08 02:58:36;;;;;;;4.43;4.03;;;;;;;;;;4991181;28;20207;-48
2023/05/08 03:01:07;;;;;;;4.20;3.80;;;;;;;;;;4996788;28;20260;-48
2023/05/08 03:03:38;;;;;;;4.25;3.85;;;;;;;;;;4996293;28;20189;-47
2023/05/08 03:06:06;;;;;;;5.57;4.07;;;;;;;;;;4997193;28;20215;-46
2023/05/08 03:08:33;;;;;;;4.80;4.10;;;;;;;;;;4997701;28;20205;-46
2023/05/08 03:11:02;;;;;;;4.53;3.97;;;;;;;;;;4997455;28;20189;-47
2023/05/08 03:13:29;;;;;;;5.05;4.00;;;;;;;;;;4997307;28;20189;-47
2023/05/08 03:15:58;;;;;;;4.15;3.78;;;;;;;;;;4995189;28;20217;-46
2023/05/08 03:18:28;;;;;;;4.05;3.33;;;;;;;;;;4997163;28;20271;-46
2023/05/08 03:20:55;;;;;;;4.47;3.17;;;;;;;;;;4995063;28;20185;-46
2023/05/08 03:23:23;;;;;;;4.10;3.80;;;;;;;;;;4998492;28;20185;-49
2023/05/08 03:25:49;;;;;;;5.65;3.03;;;;;;;;;;4997929;28;20189;-45
2023/05/08 03:28:15;;;;;;;3.22;2.92;;;;;;;;;;4997704;28;20188;-44
2023/05/08 03:30:41;;;;;;;5.00;3.13;;;;;;;;;;4995814;28;20475;-43
2023/05/08 03:33:08;;;;;;;3.72;2.97;;;;;;;;;;4996754;28;20192;-42
2023/05/08 03:35:37;;;;;;;6.55;3.22;;;;;;;;;;4997597;28;20205;-42
2023/05/08 03:38:04;;;;;;;5.85;3.22;;;;;;;;;;4996891;28;20177;-45
2023/05/08 03:40:29;;;;;;;31.38;9.68;;;;;;;;;;4995776;28;20258;-45
2023/05/08 03:42:56;;;;;;;67.97;15.30;;;;;;;;;;4996557;28;20185;-45
2023/05/08 03:45:23;;;;;;;75.20;15.75;;;;;;;;;;4996445;28;20203;-45
2023/05/08 03:47:49;;;;;;;46.38;11.15;;;;;;;;;;4996447;28;20565;-45
2023/05/08 03:50:15;;;;;;;35.92;9.68;;;;;;;;;;4996684;28;20224;-42
2023/05/08 03:52:42;;;;;;;51.70;11.10;;;;;;;;;;4997470;28;20193;-44
2023/05/08 03:55:08;;;;;;;41.90;10.88;;;;;;;;;;4996713;28;20200;-45
2023/05/08 03:57:36;;;;;;;40.78;11.95;;;;;;;;;;4997031;28;20181;-40
2023/05/08 04:00:19;;;;;;;44.20;12.70;;;;;;;;;;4997018;28;20275;-43
2023/05/08 04:02:55;;;;;;;35.58;10.82;;;;;;;;;;4996649;28;20239;-42
2023/05/08 04:05:36;;;;;;;46.70;11.57;;;;;;;;;;4989878;28;20220;-40
2023/05/08 04:08:24;;;;;;;38.78;10.52;;;;;;;;;;4996146;28;20188;-42
2023/05/08 04:10:56;;;;;;;35.65;10.35;;;;;;;;;;4997237;28;20267;-46
2023/05/08 04:13:24;;;;;;;40.95;12.27;;;;;;;;;;4991957;28;20189;-42
2023/05/08 04:15:51;;;;;;;38.75;11.43;;;;;;;;;;4979650;28;20614;-40
2023/05/08 04:18:21;;;;;;;34.75;10.98;;;;;;;;;;4994314;28;20189;-42
2023/05/08 04:20:48;;;;;;;42.42;10.68;;;;;;;;;;4996660;28;20446;-44
2023/05/08 04:23:16;;;;;;;32.30;10.50;;;;;;;;;;4997156;28;20185;-43
2023/05/08 04:25:43;;;;;;;37.47;10.77;;;;;;;;;;4990313;28;20189;-41
2023/05/08 04:28:10;;;;;;;38.95;11.02;;;;;;;;;;4996292;28;20235;-44
2023/05/08 04:30:36;;;;;;;36.25;11.38;;;;;;;;;;4996125;28;20193;-42
2023/05/08 04:33:04;;;;;;;35.85;10.10;;;;;;;;;;4995770;28;20348;-42
2023/05/08 04:35:30;;;;;;;38.75;10.55;;;;;;;;;;4995930;28;20224;-39
2023/05/08 04:37:58;;;;;;;41.28;12.05;;;;;;;;;;4995242;28;20567;-41
2023/05/08 04:40:24;;;;;;;31.48;10.15;;;;;;;;;;4994505;28;20209;-45
2023/05/08 04:42:50;;;;;;;32.78;10.57;;;;;;;;;;4996060;28;20220;-46
2023/05/08 04:45:16;;;;;;;31.98;10.23;;;;;;;;;;4994943;28;20191;-48
2023/05/08 04:47:42;;;;;;;31.17;10.18;;;;;;;;;;4995916;28;20189;-49
2023/05/08 04:50:08;;;;;;;30.92;10.60;;;;;;;;;;4978595;28;20189;-47
2023/05/08 04:52:34;;;;;;;32.42;10.30;;;;;;;;;;4995108;28;20185;-48
2023/05/08 04:55:00;;;;;;;31.17;10.10;;;;;;;;;;4995730;28;20609;-48
2023/05/08 04:57:26;;;;;;;23.88;9.57;;;;;;;;;;4995146;28;20209;-51
2023/05/08 04:59:52;;;;;;;28.20;9.10;;;;;;;;;;4995518;28;20189;-52
2023/05/08 05:02:18;;;;;;;30.77;9.52;;;;;;;;;;4993063;28;20227;-52
2023/05/08 05:04:44;;;;;;;27.15;9.10;;;;;;;;;;4994948;28;20213;-52
2023/05/08 05:07:10;;;;;;;20.42;8.85;;;;;;;;;;4994042;28;20190;-52
2023/05/08 05:09:37;;;;;;;22.75;7.65;;;;;;;;;;4994331;28;20193;-52
2023/05/08 05:12:03;;;;;;;29.10;9.55;;;;;;;;;;4995258;28;20595;-52
2023/05/08 05:14:29;;;;;;;26.48;9.23;;;;;;;;;;4995028;28;20608;-52
2023/05/08 05:16:55;;;;;;;30.77;9.30;;;;;;;;;;4994312;28;20223;-52
2023/05/08 05:19:21;;;;;;;25.70;8.77;;;;;;;;;;4993319;28;20265;-56
2023/05/08 05:21:47;;;;;;;18.98;7.38;;;;;;;;;;4994389;28;20188;-47
2023/05/08 05:24:13;;;;;;;21.60;7.95;;;;;;;;;;4994211;28;20177;-47
2023/05/08 05:26:39;;;;;;;27.15;7.78;;;;;;;;;;4993351;28;20193;-47
2023/05/08 05:29:05;;;;;;;21.17;6.85;;;;;;;;;;4992408;28;20187;-47
2023/05/08 05:31:31;;;;;;;14.68;6.18;;;;;;;;;;4991269;28;20189;-47
2023/05/08 05:33:58;;;;;;;17.95;6.07;;;;;;;;;;4994567;28;20541;-47
2023/05/08 05:36:24;;;;;;;14.80;6.18;;;;;;;;;;4995541;28;20549;-47
2023/05/08 05:38:50;;;;;;;16.20;6.03;;;;;;;;;;4991826;28;20181;-47
2023/05/08 05:41:16;;;;;;;15.27;6.28;;;;;;;;;;4994037;28;20239;-47
2023/05/08 05:43:42;;;;;;;12.65;5.90;;;;;;;;;;4992682;28;20189;-47
2023/05/08 05:46:08;;;;;;;15.23;5.82;;;;;;;;;;4995175;28;20615;-47
2023/05/08 05:48:34;;;;;;;14.20;5.53;;;;;;;;;;4994867;28;20557;-48
2023/05/08 05:51:00;;;;;;;9.85;5.53;;;;;;;;;;4995004;28;20525;-47
2023/05/08 05:53:26;;;;;;;14.73;5.57;;;;;;;;;;4994348;28;20173;-47
2023/05/08 05:55:52;;;;;;;15.43;5.95;;;;;;;;;;4994194;28;20512;-47
2023/05/08 05:58:18;;;;;;;14.38;5.68;;;;;;;;;;4993997;28;20296;-47
2023/05/08 06:00:44;;;;;;;13.00;5.65;;;;;;;;;;4994215;28;20449;-47
2023/05/08 06:03:10;;;;;;;10.70;5.57;;;;;;;;;;4994690;28;20181;-47
2023/05/08 06:05:37;;;;;;;9.13;5.63;;;;;;;;;;4994384;28;20592;-48
2023/05/08 06:08:04;;;;;;;10.95;5.22;;;;;;;;;;4993249;28;20208;-47
2023/05/08 06:10:30;;;;;;;14.88;5.30;;;;;;;;;;4994385;28;20590;-48
2023/05/08 06:12:56;;;;;;;14.45;5.22;;;;;;;;;;4993589;28;20193;-48
2023/05/08 06:15:22;;;;;;;10.15;5.43;;;;;;;;;;4993960;28;20245;-48
2023/05/08 06:17:48;;;;;;;11.55;5.15;;;;;;;;;;4991663;28;20216;-47
2023/05/08 06:20:14;;;;;;;8.73;4.68;;;;;;;;;;4994218;28;20242;-47
2023/05/08 06:22:40;;;;;;;9.70;4.97;;;;;;;;;;4994823;28;20185;-47
2023/05/08 06:25:07;;;;;;;10.00;5.10;;;;;;;;;;4994860;28;20185;-47
2023/05/08 06:27:33;;;;;;;10.43;5.00;;;;;;;;;;4994335;28;20177;-48
2023/05/08 06:29:59;;;;;;;9.70;4.82;;;;;;;;;;4994427;28;20185;-47
2023/05/08 06:32:25;;;;;;;9.38;5.05;;;;;;;;;;4994844;28;20764;-48
2023/05/08 06:34:51;;;;;;;9.85;4.78;;;;;;;;;;4994732;28;20486;-48
2023/05/08 06:37:17;;;;;;;10.18;4.85;;;;;;;;;;4995023;28;20185;-48
2023/05/08 06:39:43;;;;;;;9.32;5.10;;;;;;;;;;4993874;28;20510;-48
2023/05/08 06:42:09;;;;;;;6.18;4.40;;;;;;;;;;4994968;28;20185;-48
2023/05/08 06:44:35;;;;;;;6.63;4.47;;;;;;;;;;4994899;28;20221;-47
2023/05/08 06:47:01;;;;;;;6.72;4.10;;;;;;;;;;4994499;28;20181;-48
2023/05/08 06:49:27;;;;;;;7.25;4.65;;;;;;;;;;4993646;28;20420;-47
2023/05/08 06:51:53;;;;;;;6.43;4.25;;;;;;;;;;4994563;28;20188;-47
2023/05/08 06:54:19;;;;;;;7.43;4.07;;;;;;;;;;4994665;28;20208;-47
2023/05/08 06:56:45;;;;;;;7.75;4.05;;;;;;;;;;4993680;28;20219;-48
2023/05/08 06:59:11;;;;;;;7.85;4.80;;;;;;;;;;4993286;28;20276;-48
2023/05/08 07:01:37;;;;;;;6.07;3.95;;;;;;;;;;4991886;28;20181;-47
2023/05/08 07:04:03;;;;;;;7.53;4.40;;;;;;;;;;4993002;28;20189;-48
2023/05/08 07:06:33;;;;;;;7.10;4.18;;;;;;;;;;4993777;28;20511;-47
2023/05/08 07:08:59;;;;;;;8.63;3.90;;;;;;;;;;4993276;28;20217;-47
2023/05/08 07:11:25;;;;;;;6.90;4.00;;;;;;;;;;4993929;28;20189;-48
2023/05/08 07:13:51;;;;;;;7.18;4.07;;;;;;;;;;4993603;28;20185;-48
2023/05/08 07:16:17;;;;;;;8.38;3.67;;;;;;;;;;4993015;28;20204;-48
2023/05/08 07:18:43;;;;;;;4.70;3.42;;;;;;;;;;4993806;28;20181;-47
2023/05/08 07:21:09;;;;;;;6.07;3.72;;;;;;;;;;4991933;28;20196;-47
2023/05/08 07:23:35;;;;;;;5.85;3.60;;;;;;;;;;4994800;28;20185;-48
2023/05/08 07:26:01;;;;;;;6.57;4.05;;;;;;;;;;4994036;28;20484;-48
2023/05/08 07:28:30;;;;;;;4.30;3.83;;;;;;;;;;4992891;28;20189;-47
2023/05/08 07:30:56;;;;;;;6.55;4.10;;;;;;;;;;4989123;28;20612;-48
2023/05/08 07:33:22;;;;;;;4.32;3.40;;;;;;;;;;4993876;28;20320;-47
2023/05/08 07:35:48;;;;;;;4.15;3.33;;;;;;;;;;4993144;28;20205;-48
2023/05/08 07:38:14;;;;;;;3.92;3.35;;;;;;;;;;4992514;28;20186;-48
2023/05/08 07:40:40;;;;;;;4.88;3.58;;;;;;;;;;4996336;28;20190;-48
2023/05/08 07:43:06;;;;;;;6.30;4.18;;;;;;;;;;4998134;28;20178;-48
2023/05/08 07:45:33;;;;;;;4.75;3.67;;;;;;;;;;4997119;28;20201;-47
2023/05/08 07:47:59;;;;;;;5.15;3.50;;;;;;;;;;4997030;28;20177;-47
2023/05/08 07:50:25;;;;;;;5.80;3.65;;;;;;;;;;4995907;28;20204;-48
2023/05/08 07:52:52;;;;;;;4.72;3.75;;;;;;;;;;4995052;28;20472;-47
2023/05/08 07:55:18;;;;;;;6.53;3.55;;;;;;;;;;4997340;28;20209;-48
2023/05/08 07:57:44;;;;;;;6.53;3.67;;;;;;;;;;4997835;28;20550;-47
2023/05/08 08:00:12;;;;;;;4.53;3.60;;;;;;;;;;4997267;28;20186;-47
2023/05/08 08:02:38;;;;;;;5.20;3.50;;;;;;;;;;4997177;28;20566;-48
2023/05/08 08:05:07;;;;;;;4.65;3.78;;;;;;;;;;4997273;28;20189;-47
2023/05/08 08:07:34;;;;;;;4.43;3.10;;;;;;;;;;4997500;28;20178;-48
2023/05/08 08:10:00;;;;;;;4.07;3.13;;;;;;;;;;4995870;28;20219;-48
2023/05/08 08:12:26;;;;;;;3.65;3.10;;;;;;;;;;4997259;28;20551;-47
2023/05/08 08:14:52;;;;;;;3.65;3.30;;;;;;;;;;4997543;28;20212;-47
2023/05/08 08:17:18;;;;;;;4.50;3.22;;;;;;;;;;4996839;28;20204;-47
2023/05/08 08:19:44;;;;;;;3.50;3.00;;;;;;;;;;4996692;28;20193;-47
2023/05/08 08:22:10;;;;;;;4.80;3.17;;;;;;;;;;4996877;28;20189;-47
2023/05/08 08:24:36;;;;;;;4.40;2.95;;;;;;;;;;4997172;28;20632;-47
2023/05/08 08:27:02;;;;;;;3.72;3.08;;;;;;;;;;4997060;28;20292;-47
2023/05/08 08:29:28;;;;;;;5.45;3.28;;;;;;;;;;4996424;28;20175;-47
2023/05/08 08:31:55;;;;;;;3.22;2.90;;;;;;;;;;4996682;28;20197;-47
2023/05/08 08:34:21;;;;;;;4.43;3.15;;;;;;;;;;4996957;28;20189;-47
2023/05/08 08:36:47;;;;;;;4.82;2.90;;;;;;;;;;4997000;28;20203;-47
2023/05/08 08:39:12;;;;;;;3.80;3.40;;;;;;;;;;4995646;28;20545;-47
2023/05/08 08:41:39;;;;;;;3.75;3.08;;;;;;;;;;4996946;28;20620;-48
2023/05/08 08:44:05;;;;;;;3.92;2.95;;;;;;;;;;4997037;28;20181;-48
2023/05/08 08:46:34;;;;;;;4.50;3.50;;;;;;;;;;4996126;28;20296;-47
2023/05/08 08:49:03;;;;;;;3.63;3.08;;;;;;;;;;4995940;28;20584;-48
2023/05/08 08:51:32;;;;;;;3.55;2.90;;;;;;;;;;4994967;28;20213;-47
2023/05/08 08:54:03;;;;;;;3.75;3.05;;;;;;;;;;4994485;28;20578;-48
2023/05/08 08:56:31;;;;;;;2.85;2.60;;;;;;;;;;4995140;28;20211;-48
2023/05/08 08:58:58;;;;;;;3.72;3.20;;;;;;;;;;4994581;28;20271;-47
2023/05/08 09:01:25;;;;;;;3.75;2.40;;;;;;;;;;4995199;28;20269;-47
2023/05/08 09:03:51;;;;;;;3.95;2.92;;;;;;;;;;4995034;28;20188;-47
2023/05/08 09:06:18;;;;;;;3.42;3.08;;;;;;;;;;4995053;28;20284;-47
2023/05/08 09:08:44;;;;;;;3.08;2.78;;;;;;;;;;4989958;28;20192;-47
2023/05/08 09:11:10;;;;;;;3.40;3.10;;;;;;;;;;4995990;28;20195;-48
2023/05/08 09:13:36;;;;;;;3.03;2.75;;;;;;;;;;4995690;28;20181;-47
2023/05/08 09:16:02;;;;;;;3.85;2.90;;;;;;;;;;4995005;28;20680;-47
2023/05/08 09:18:28;;;;;;;3.80;3.15;;;;;;;;;;4994761;28;20264;-47
2023/05/08 09:20:54;;;;;;;3.35;2.95;;;;;;;;;;4995336;28;20181;-48
2023/05/08 09:23:20;;;;;;;3.28;2.88;;;;;;;;;;4994341;28;20268;-48
2023/05/08 09:25:47;;;;;;;3.35;3.05;;;;;;;;;;4992885;28;20276;-47
2023/05/08 09:28:17;;;;;;;2.92;2.72;;;;;;;;;;4995278;28;20181;-48
2023/05/08 09:30:50;;;;;;;3.20;2.90;;;;;;;;;;4994791;28;20185;-47
2023/05/08 09:33:16;;;;;;;3.80;2.92;;;;;;;;;;4995760;28;20189;-47
2023/05/08 09:35:42;;;;;;;3.03;2.72;;;;;;;;;;4994737;28;20213;-47
2023/05/08 09:38:08;;;;;;;3.72;2.90;;;;;;;;;;4998121;28;20231;-47
2023/05/08 09:40:35;;;;;;;3.88;2.95;;;;;;;;;;4994320;28;20181;-47
2023/05/08 09:43:11;;;;;;;2.78;2.58;;;;;;;;;;4993506;28;20248;-48
2023/05/08 09:45:38;;;;;;;3.97;2.80;;;;;;;;;;4993643;28;20204;-47
2023/05/08 09:48:05;;;;;;;3.28;2.97;;;;;;;;;;4995102;28;20208;-47
2023/05/08 09:50:32;;;;;;;3.95;2.97;;;;;;;;;;4995018;28;20278;-47
2023/05/08 09:52:58;;;;;;;3.03;2.78;;;;;;;;;;4994487;28;20193;-47
2023/05/08 09:55:24;;;;;;;2.92;2.47;;;;;;;;;;4992813;28;20485;-47
2023/05/08 09:57:55;;;;;;;2.83;2.63;;;;;;;;;;4994294;28;20193;-48
2023/05/08 10:00:21;;;;;;;3.10;2.80;;;;;;;;;;4994703;28;20174;-48
2023/05/08 10:02:58;;;;;;;2.95;2.67;;;;;;;;;;4994820;28;20503;-47
2023/05/08 10:05:31;;;;;;;3.35;2.75;;;;;;;;;;4994644;28;20201;-47
2023/05/08 10:07:57;;;;;;;3.08;2.60;;;;;;;;;;4991303;28;20597;-47
2023/05/08 10:10:27;;;;;;;3.03;2.53;;;;;;;;;;4994206;28;20199;-48
2023/05/08 10:12:54;;;;;;;2.75;2.55;;;;;;;;;;4992417;28;20643;-48
2023/05/08 10:15:22;;;;;;;3.17;2.88;;;;;;;;;;4994835;28;20216;-47
2023/05/08 10:17:59;;;;;;;3.75;2.72;;;;;;;;;;4994121;28;20213;-47
2023/05/08 10:20:27;;;;;;;2.60;2.40;;;;;;;;;;4994273;28;20189;-47
2023/05/08 10:22:53;;;;;;;4.97;2.85;;;;;;;;;;4994301;28;20200;-47
2023/05/08 10:25:21;;;;;;;2.78;2.58;;;;;;;;;;4994034;28;20184;-47
2023/05/08 10:27:51;;;;;;;2.40;2.20;;;;;;;;;;4994165;28;20177;-47
2023/05/08 10:30:19;;;;;;;2.85;2.65;;;;;;;;;;4993697;28;20185;-48
2023/05/08 10:32:45;;;;;;;3.17;2.63;;;;;;;;;;4994154;28;20215;-47
2023/05/08 10:35:11;;;;;;;2.80;2.60;;;;;;;;;;4993759;28;20212;-47
2023/05/08 10:37:38;;;;;;;3.17;2.85;;;;;;;;;;4994063;28;20181;-47
2023/05/08 10:40:05;;;;;;;2.83;2.55;;;;;;;;;;4993778;28;20261;-47
2023/05/08 10:42:33;;;;;;;4.15;2.72;;;;;;;;;;4993852;28;20449;-47
2023/05/08 10:44:59;;;;;;;3.08;2.67;;;;;;;;;;4993611;28;20212;-47
2023/05/08 10:47:44;;;;;;;2.60;2.40;;;;;;;;;;4993397;28;20196;-47
2023/05/08 10:50:22;;;;;;;3.25;2.70;;;;;;;;;;4993494;28;20286;-47
2023/05/08 10:52:59;;;;;;;5.57;2.80;;;;;;;;;;4994141;28;20217;-47
2023/05/08 10:55:33;;;;;;;9.60;2.60;;;;;;;;;;4992721;28;20276;-47
2023/05/08 10:58:02;;;;;;;5.07;2.60;;;;;;;;;;4993911;28;20687;-47
2023/05/08 11:00:47;;;;;;;4.10;2.22;;;;;;;;;;4993221;28;20174;-47
2023/05/08 11:03:13;;;;;;;7.10;2.53;;;;;;;;;;4992320;28;20192;-47
2023/05/08 11:05:46;;;;;;;9.98;2.78;;;;;;;;;;4976630;28;20181;-47
2023/05/08 11:08:17;;;;;;;7.18;3.10;;;;;;;;;;4993043;28;20201;-47
2023/05/08 11:10:44;;;;;;;3.28;2.30;;;;;;;;;;4986301;28;20189;-47
2023/05/08 11:13:11;;;;;;;4.68;1.90;;;;;;;;;;4993837;28;20177;-47
2023/05/08 11:15:37;;;;;;;2.25;1.95;;;;;;;;;;4997434;28;20216;-47
2023/05/08 11:18:05;;;;;;;4.97;2.17;;;;;;;;;;4997029;28;20185;-47
2023/05/08 11:20:41;;;;;;;3.47;2.35;;;;;;;;;;4997856;28;20185;-47
2023/05/08 11:23:26;;;;;;;2.15;1.98;;;;;;;;;;4997123;28;20231;-47
2023/05/08 11:26:10;;;;;;;3.53;2.20;;;;;;;;;;4990770;28;20185;-47
2023/05/08 11:28:37;;;;;;;3.28;1.88;;;;;;;;;;4995864;28;20203;-47
2023/05/08 11:31:04;;;;;;;4.53;1.90;;;;;;;;;;4997509;28;20212;-47
2023/05/08 11:33:30;;;;;;;2.65;1.88;;;;;;;;;;4996323;28;20259;-47
2023/05/08 11:36:00;;;;;;;3.53;1.65;;;;;;;;;;4994879;28;20205;-48
2023/05/08 11:38:27;;;;;;;4.47;1.58;;;;;;;;;;4996964;28;20302;-47
2023/05/08 11:40:53;;;;;;;3.15;1.80;;;;;;;;;;4996854;28;20204;-47
2023/05/08 11:43:31;;;;;;;3.92;1.70;;;;;;;;;;4996981;28;20212;-48
2023/05/08 11:46:03;;;;;;;4.45;1.42;;;;;;;;;;4997242;28;20181;-48
2023/05/08 11:48:29;;;;;;;2.20;1.80;;;;;;;;;;4996135;28;20185;-47
2023/05/08 11:50:55;;;;;;;2.35;1.60;;;;;;;;;;4997230;28;20189;-47
2023/05/08 11:53:21;;;;;;;3.13;1.70;;;;;;;;;;4996220;28;20530;-47
2023/05/08 11:55:48;;;;;;;2.00;1.60;;;;;;;;;;4996085;28;20498;-48
2023/05/08 11:58:14;;;;;;;2.70;1.80;;;;;;;;;;4995505;28;20181;-47
2023/05/08 12:00:43;;;;;;;2.00;1.80;;;;;;;;;;4996738;28;20185;-47
2023/05/08 12:03:12;;;;;;;1.70;1.60;;;;;;;;;;4997409;28;20511;-47
2023/05/08 12:05:37;;;;;;;2.60;2.05;;;;;;;;;;4997384;28;20208;-47
2023/05/08 12:08:05;;;;;;;2.40;1.50;;;;;;;;;;4997586;28;20216;-47
2023/05/08 12:10:31;;;;;;;1.27;1.17;;;;;;;;;;4995990;28;20181;-47
2023/05/08 12:12:57;;;;;;;3.58;1.25;;;;;;;;;;4995208;28;20840;-47
2023/05/08 12:15:23;;;;;;;3.33;1.13;;;;;;;;;;4995149;28;20205;-47
2023/05/08 12:18:00;;;;;;;1.65;1.20;;;;;;;;;;4995213;28;20181;-48
2023/05/08 12:20:26;;;;;;;2.00;1.02;;;;;;;;;;4996317;28;20196;-47
2023/05/08 12:22:52;;;;;;;1.50;1.40;;;;;;;;;;4996393;28;20252;-47
2023/05/08 12:25:19;;;;;;;1.35;1.17;;;;;;;;;;4991276;28;20561;-47
2023/05/08 12:27:45;;;;;;;2.80;1.17;;;;;;;;;;4996012;28;20195;-47
2023/05/08 12:30:12;;;;;;;1.13;1.10;;;;;;;;;;4995840;28;20297;-47
2023/05/08 12:32:42;;;;;;;3.05;0.98;;;;;;;;;;4995361;28;20240;-47
2023/05/08 12:35:08;;;;;;;1.50;1.30;;;;;;;;;;4996423;28;21144;-48
2023/05/08 12:37:34;;;;;;;1.85;1.10;;;;;;;;;;4995772;28;20260;-47
2023/05/08 12:40:00;;;;;;;1.33;1.10;;;;;;;;;;4995581;28;20212;-47
2023/05/08 12:42:58;;;;;;;1.35;1.25;;;;;;;;;;4995117;28;20193;-47
2023/05/08 12:45:26;;;;;;;1.33;1.00;;;;;;;;;;4952704;28;20201;-47
2023/05/08 12:47:53;;;;;;;3.05;1.20;;;;;;;;;;4995837;28;20491;-47
2023/05/08 12:50:20;;;;;;;1.20;1.10;;;;;;;;;;4995154;28;20183;-47
2023/05/08 12:52:46;;;;;;;2.25;1.08;;;;;;;;;;4995597;28;20185;-47
2023/05/08 12:55:21;;;;;;;1.40;1.30;;;;;;;;;;4995270;28;20600;-47
2023/05/08 12:57:48;;;;;;;2.13;1.20;;;;;;;;;;4994580;28;20706;-47
2023/05/08 13:00:15;;;;;;;1.40;1.30;;;;;;;;;;4994558;28;20177;-47
2023/05/08 13:02:51;;;;;;;1.77;1.40;;;;;;;;;;4995510;28;20185;-47
2023/05/08 13:05:20;;;;;;;1.90;1.20;;;;;;;;;;4995634;28;20975;-47
2023/05/08 13:07:46;;;;;;;2.20;1.27;;;;;;;;;;4995212;28;20189;-47
2023/05/08 13:10:12;;;;;;;1.45;0.98;;;;;;;;;;4995102;28;20706;-47
2023/05/08 13:12:38;;;;;;;2.03;1.27;;;;;;;;;;4995315;28;20196;-47
2023/05/08 13:15:04;;;;;;;2.33;1.23;;;;;;;;;;4995794;28;20748;-48
2023/05/08 13:17:30;;;;;;;1.23;1.13;;;;;;;;;;4976898;28;20181;-47
2023/05/08 13:19:56;;;;;;;1.42;1.33;;;;;;;;;;4994297;28;20211;-47
2023/05/08 13:22:25;;;;;;;1.17;1.10;;;;;;;;;;4994992;28;20453;-47
2023/05/08 13:24:51;;;;;;;1.63;1.23;;;;;;;;;;4995811;28;20200;-47
2023/05/08 13:27:17;;;;;;;2.35;1.30;;;;;;;;;;4994506;28;20224;-47
2023/05/08 13:29:43;;;;;;;1.40;1.30;;;;;;;;;;4994608;28;20197;-48
2023/05/08 13:32:09;;;;;;;1.40;1.30;;;;;;;;;;4995373;28;20193;-47
2023/05/08 13:34:34;;;;;;;1.52;1.23;;;;;;;;;;4994995;28;20220;-49
2023/05/08 13:37:00;;;;;;;1.40;1.10;;;;;;;;;;4994090;28;20464;-47
2023/05/08 13:39:26;;;;;;;1.42;1.33;;;;;;;;;;4994452;28;20185;-47
2023/05/08 13:41:52;;;;;;;1.90;1.25;;;;;;;;;;4994427;28;20231;-47
2023/05/08 13:44:18;;;;;;;1.55;1.45;;;;;;;;;;4995143;28;20181;-48
2023/05/08 13:46:44;;;;;;;3.17;1.45;;;;;;;;;;4994146;28;20177;-47
2023/05/08 13:49:10;;;;;;;2.00;1.58;;;;;;;;;;4994775;28;20189;-47
2023/05/08 13:51:36;;;;;;;1.30;1.20;;;;;;;;;;4994877;28;20189;-47
2023/05/08 13:54:02;;;;;;;1.50;1.40;;;;;;;;;;4996295;28;20211;-47
2023/05/08 13:56:28;;;;;;;2.78;1.55;;;;;;;;;;4994902;28;20236;-47
2023/05/08 13:58:54;;;;;;;1.30;1.20;;;;;;;;;;4994371;28;20264;-48
2023/05/08 14:01:20;;;;;;;1.48;1.38;;;;;;;;;;4994775;28;20452;-47
2023/05/08 14:03:46;;;;;;;1.40;1.30;;;;;;;;;;4993989;28;20195;-47
2023/05/08 14:06:12;;;;;;;1.50;1.40;;;;;;;;;;4994618;28;20193;-47
2023/05/08 14:08:37;;;;;;;1.70;1.60;;;;;;;;;;4992915;28;20189;-47
2023/05/08 14:11:03;;;;;;;1.50;1.40;;;;;;;;;;4994661;28;20185;-47
2023/05/08 14:13:29;;;;;;;1.40;1.30;;;;;;;;;;4993961;28;20517;-47
2023/05/08 14:15:55;;;;;;;2.05;1.42;;;;;;;;;;4994242;28;20216;-47
2023/05/08 14:18:21;;;;;;;1.48;1.38;;;;;;;;;;4993445;28;20185;-47
2023/05/08 14:20:47;;;;;;;2.95;1.60;;;;;;;;;;4994033;28;20485;-47
2023/05/08 14:23:13;;;;;;;1.60;1.50;;;;;;;;;;4993612;28;20230;-47
2023/05/08 14:25:39;;;;;;;2.30;1.40;;;;;;;;;;4994609;28;20197;-47
2023/05/08 14:28:05;;;;;;;1.73;1.63;;;;;;;;;;4994426;28;20189;-47
2023/05/08 14:30:31;;;;;;;2.92;1.42;;;;;;;;;;4992427;28;20181;-47
2023/05/08 14:32:56;;;;;;;1.63;1.40;;;;;;;;;;4993669;28;20188;-47
2023/05/08 14:35:22;;;;;;;1.80;1.42;;;;;;;;;;4994440;28;20262;-47
2023/05/08 14:37:48;;;;;;;2.25;1.80;;;;;;;;;;4992467;28;20835;-48
2023/05/08 14:40:14;;;;;;;2.42;1.42;;;;;;;;;;4993721;28;20212;-48
2023/05/08 14:42:40;;;;;;;7.93;1.67;;;;;;;;;;4994434;28;20189;-47
2023/05/08 14:45:06;;;;;;;1.55;1.45;;;;;;;;;;4993832;28;20189;-47